createdAt,value
2023-01-21T00:01:12.545Z,19.58
2023-01-21T00:03:39.935Z,18.38
2023-01-21T00:06:08.096Z,19.50
2023-01-21T00:08:35.575Z,18.05
2023-01-21T00:11:14.439Z,20.58
2023-01-21T00:13:43.159Z,18.77
2023-01-21T00:16:12.045Z,20.60
2023-01-21T00:18:39.346Z,20.25
2023-01-21T00:21:06.968Z,18.55
2023-01-21T00:23:34.251Z,18.27
2023-01-21T00:26:04.834Z,19.48
2023-01-21T00:28:34.279Z,18.75
2023-01-21T00:31:05.284Z,18.48
2023-01-21T00:33:33.560Z,20.80
2023-01-21T00:36:06.193Z,23.90
2023-01-21T00:38:34.624Z,18.38
2023-01-21T00:41:04.752Z,18.73
2023-01-21T00:43:32.667Z,18.80
2023-01-21T00:46:00.572Z,20.17
2023-01-21T00:48:28.725Z,18.23
2023-01-21T00:50:59.139Z,19.67
2023-01-21T00:53:32.483Z,18.48
2023-01-21T00:56:07.629Z,19.42
2023-01-21T00:58:35.460Z,20.00
2023-01-21T01:01:09.011Z,19.15
2023-01-21T01:03:37.726Z,24.40
2023-01-21T01:06:12.091Z,21.33
2023-01-21T01:08:39.512Z,19.88
2023-01-21T01:11:07.389Z,18.63
2023-01-21T01:13:36.021Z,18.42
2023-01-21T01:16:04.277Z,18.98
2023-01-21T01:18:33.961Z,19.13
2023-01-21T01:21:02.431Z,18.85
2023-01-21T01:23:30.034Z,18.67
2023-01-21T01:26:03.020Z,18.42
2023-01-21T01:28:31.188Z,18.50
2023-01-21T01:30:59.340Z,18.48
2023-01-21T01:33:27.682Z,17.23
2023-01-21T01:35:55.399Z,17.60
2023-01-21T01:38:23.156Z,16.85
2023-01-21T01:40:53.318Z,16.98
2023-01-21T01:43:49.373Z,17.20
2023-01-21T01:46:17.109Z,15.75
2023-01-21T01:48:49.605Z,16.05
2023-01-21T01:51:22.901Z,11.05
2023-01-21T01:53:51.903Z,11.90
2023-01-21T01:56:19.807Z,11.18
2023-01-21T01:58:48.481Z,5.85
2023-01-21T02:01:16.147Z,4.20
2023-01-21T02:03:50.862Z,3.00
2023-01-21T02:06:19.333Z,3.08
2023-01-21T02:08:47.768Z,2.22
2023-01-21T02:11:18.069Z,2.28
2023-01-21T02:13:58.060Z,1.58
2023-01-21T02:16:53.136Z,1.80
2023-01-21T02:19:35.560Z,1.65
2023-01-21T02:22:16.372Z,1.40
2023-01-21T02:24:49.638Z,1.05
2023-01-21T02:27:41.975Z,1.17
2023-01-21T02:30:27.335Z,1.17
2023-01-21T02:33:39.117Z,1.23
2023-01-21T02:36:15.119Z,1.20
2023-01-21T02:39:20.125Z,1.20
2023-01-21T02:42:00.486Z,1.42
2023-01-21T02:44:37.647Z,1.40
2023-01-21T02:47:22.866Z,2.03
2023-01-21T02:50:01.005Z,1.77
2023-01-21T02:52:28.409Z,2.25
2023-01-21T02:54:58.175Z,2.63
2023-01-21T02:57:43.208Z,3.17
2023-01-21T03:00:24.985Z,2.60
2023-01-21T03:03:04.354Z,3.08
2023-01-21T03:06:00.907Z,3.65
2023-01-21T03:08:40.936Z,2.92
2023-01-21T03:11:08.473Z,3.45
2023-01-21T03:14:02.610Z,3.63
2023-01-21T03:16:54.951Z,3.90
2023-01-21T03:19:42.420Z,3.08
2023-01-21T03:22:18.938Z,2.85
2023-01-21T03:24:51.182Z,3.15
2023-01-21T03:27:22.714Z,2.50
2023-01-21T03:29:56.909Z,2.05
2023-01-21T03:32:26.703Z,1.58
2023-01-21T03:34:56.064Z,1.10
2023-01-21T03:37:46.565Z,1.10
2023-01-21T03:40:36.255Z,1.17
2023-01-21T03:43:04.427Z,1.30
2023-01-21T03:45:45.632Z,1.35
2023-01-21T03:48:31.593Z,0.90
2023-01-21T03:51:15.884Z,0.57
2023-01-21T03:53:43.993Z,1.00
2023-01-21T03:56:11.386Z,1.00
2023-01-21T03:58:38.916Z,1.15
2023-01-21T04:01:06.241Z,1.17
2023-01-21T04:03:33.838Z,1.02
2023-01-21T04:06:01.052Z,1.95
2023-01-21T04:08:28.630Z,0.75
2023-01-21T04:10:55.846Z,0.77
2023-01-21T04:13:23.373Z,1.35
2023-01-21T04:15:50.793Z,0.80
2023-01-21T04:18:18.598Z,1.00
2023-01-21T04:20:46.799Z,1.00
2023-01-21T04:23:14.456Z,0.88
2023-01-21T04:25:41.732Z,0.93
2023-01-21T04:28:09.262Z,0.70
2023-01-21T04:30:36.598Z,0.82
2023-01-21T04:33:04.250Z,0.45
2023-01-21T04:35:31.529Z,1.02
2023-01-21T04:37:59.035Z,0.90
2023-01-21T04:40:26.290Z,0.75
2023-01-21T04:42:53.931Z,0.70
2023-01-21T04:45:21.661Z,1.17
2023-01-21T04:47:49.276Z,0.75
2023-01-21T04:50:17.064Z,1.05
2023-01-21T04:52:44.955Z,0.80
2023-01-21T04:55:12.328Z,0.47
2023-01-21T04:57:39.973Z,0.55
2023-01-21T05:00:08.670Z,0.63
2023-01-21T05:02:36.330Z,0.77
2023-01-21T05:05:04.035Z,0.70
2023-01-21T05:07:31.572Z,0.98
2023-01-21T05:09:58.887Z,1.00
2023-01-21T05:12:26.702Z,0.57
2023-01-21T05:14:54.848Z,0.60
2023-01-21T05:17:22.412Z,0.60
2023-01-21T05:19:52.888Z,0.55
2023-01-21T05:22:20.571Z,0.75
2023-01-21T05:24:48.379Z,0.88
2023-01-21T05:27:16.131Z,0.77
2023-01-21T05:29:43.427Z,0.50
2023-01-21T05:32:11.042Z,0.52
2023-01-21T05:34:38.271Z,0.60
2023-01-21T05:37:05.952Z,0.38
2023-01-21T05:39:33.226Z,0.40
2023-01-21T05:42:00.827Z,0.43
2023-01-21T05:44:28.238Z,0.38
2023-01-21T05:46:55.788Z,0.50
2023-01-21T05:49:23.014Z,0.75
2023-01-21T05:51:50.634Z,0.90
2023-01-21T05:54:17.898Z,0.30
2023-01-21T05:56:45.419Z,0.30
2023-01-21T05:59:12.782Z,0.63
2023-01-21T06:01:40.349Z,0.50
2023-01-21T06:04:07.594Z,0.50
2023-01-21T06:06:35.237Z,0.60
2023-01-21T06:09:02.509Z,0.43
2023-01-21T06:11:30.072Z,0.47
2023-01-21T06:13:57.331Z,0.30
2023-01-21T06:16:24.854Z,0.40
2023-01-21T06:18:52.139Z,0.70
2023-01-21T06:21:19.691Z,0.30
2023-01-21T06:23:46.900Z,0.35
2023-01-21T06:26:14.571Z,0.70
2023-01-21T06:28:41.827Z,0.55
2023-01-21T06:31:09.410Z,0.68
2023-01-21T06:33:36.742Z,0.40
2023-01-21T06:36:04.529Z,0.40
2023-01-21T06:38:35.978Z,0.50
2023-01-21T06:41:04.550Z,0.47
2023-01-21T06:43:31.839Z,0.43
2023-01-21T06:45:59.450Z,0.88
2023-01-21T06:48:26.713Z,0.55
2023-01-21T06:50:54.315Z,0.85
2023-01-21T06:53:21.677Z,0.70
2023-01-21T06:55:49.233Z,0.55
2023-01-21T06:58:16.529Z,1.65
2023-01-21T07:00:44.592Z,0.45
2023-01-21T07:03:11.864Z,1.27
2023-01-21T07:05:39.457Z,1.55
2023-01-21T07:08:06.839Z,1.00
2023-01-21T07:10:34.393Z,0.57
2023-01-21T07:13:01.684Z,0.73
2023-01-21T07:15:31.056Z,0.70
2023-01-21T07:17:58.336Z,0.77
2023-01-21T07:20:26.117Z,0.75
2023-01-21T07:22:53.720Z,0.60
2023-01-21T07:25:21.261Z,0.45
2023-01-21T07:27:48.667Z,0.65
2023-01-21T07:30:19.248Z,0.70
2023-01-21T07:32:47.549Z,0.93
2023-01-21T07:35:15.779Z,0.65
2023-01-21T07:37:43.372Z,0.55
2023-01-21T07:40:11.425Z,0.55
2023-01-21T07:42:38.732Z,0.50
2023-01-21T07:45:06.857Z,1.23
2023-01-21T07:47:34.267Z,1.08
2023-01-21T07:50:05.103Z,0.80
2023-01-21T07:52:32.784Z,0.77
2023-01-21T07:55:01.741Z,0.50
2023-01-21T07:57:29.252Z,0.98
2023-01-21T07:59:56.779Z,0.50
2023-01-21T08:02:24.345Z,0.70
2023-01-21T08:04:52.096Z,0.70
2023-01-21T08:07:19.339Z,0.65
2023-01-21T08:09:46.935Z,0.88
2023-01-21T08:12:14.156Z,0.98
2023-01-21T08:14:41.703Z,1.30
2023-01-21T08:17:09.032Z,0.85
2023-01-21T08:19:36.541Z,0.70
2023-01-21T08:22:03.835Z,0.75
2023-01-21T08:24:31.422Z,0.52
2023-01-21T08:27:00.329Z,0.80
2023-01-21T08:29:28.149Z,1.23
2023-01-21T08:31:55.535Z,0.70
2023-01-21T08:34:23.313Z,0.73
2023-01-21T08:36:50.591Z,0.70
2023-01-21T08:39:18.150Z,0.90
2023-01-21T08:41:46.057Z,0.65
2023-01-21T08:44:13.709Z,0.85
2023-01-21T08:46:40.988Z,0.90
2023-01-21T08:49:08.690Z,1.00
2023-01-21T08:51:36.012Z,0.57
2023-01-21T08:54:08.273Z,1.23
2023-01-21T08:56:35.913Z,0.98
2023-01-21T08:59:03.529Z,1.60
2023-01-21T09:01:30.837Z,0.70
2023-01-21T09:04:00.544Z,1.08
2023-01-21T09:06:29.797Z,1.02
2023-01-21T09:08:58.226Z,1.20
2023-01-21T09:11:27.070Z,0.93
2023-01-21T09:13:54.709Z,0.98
2023-01-21T09:16:23.253Z,1.05
2023-01-21T09:18:51.108Z,1.00
2023-01-21T09:21:18.339Z,0.90
2023-01-21T09:23:46.090Z,1.40
2023-01-21T09:26:20.253Z,0.95
2023-01-21T09:29:02.124Z,1.20
2023-01-21T09:31:30.811Z,1.08
2023-01-21T09:34:04.325Z,1.15
2023-01-21T09:36:34.070Z,1.10
2023-01-21T09:39:02.199Z,0.88
2023-01-21T09:41:52.658Z,0.80
2023-01-21T09:44:28.341Z,1.30
2023-01-21T09:46:55.604Z,1.10
2023-01-21T09:49:26.051Z,1.15
2023-01-21T09:52:09.178Z,1.05
2023-01-21T09:54:38.294Z,2.00
2023-01-21T09:57:05.436Z,1.52
2023-01-21T09:59:40.123Z,2.70
2023-01-21T10:02:21.817Z,1.55
2023-01-21T10:05:06.770Z,1.02
2023-01-21T10:07:47.240Z,1.27
2023-01-21T10:10:28.448Z,1.15
2023-01-21T10:13:15.558Z,1.30
2023-01-21T10:16:13.441Z,2.13
2023-01-21T10:18:45.056Z,1.42
2023-01-21T10:24:15.038Z,1.00
2023-01-21T10:26:47.179Z,0.95
2023-01-21T10:29:18.030Z,1.05
2023-01-21T10:32:13.691Z,1.05
2023-01-21T10:34:52.217Z,1.17
2023-01-21T10:37:48.340Z,1.35
2023-01-21T10:40:42.880Z,0.65
2023-01-21T10:43:10.522Z,1.60
2023-01-21T10:46:01.203Z,1.08
2023-01-21T10:48:41.158Z,1.25
2023-01-21T10:51:17.000Z,0.93
2023-01-21T10:53:52.127Z,1.10
2023-01-21T10:56:34.984Z,1.20
2023-01-21T10:59:10.891Z,1.33
2023-01-21T11:01:41.748Z,1.27
2023-01-21T11:04:22.205Z,1.88
2023-01-21T11:06:59.599Z,1.25
2023-01-21T11:09:31.734Z,1.83
2023-01-21T11:12:00.967Z,1.02
2023-01-21T11:14:28.648Z,1.35
2023-01-21T11:16:56.532Z,1.05
2023-01-21T11:19:27.130Z,1.17
2023-01-21T11:22:22.165Z,1.05
2023-01-21T11:24:51.834Z,0.95
2023-01-21T11:27:23.634Z,0.90
2023-01-21T11:29:51.212Z,0.77
2023-01-21T11:32:22.891Z,1.05
2023-01-21T11:37:21.849Z,1.42
2023-01-21T11:40:03.772Z,1.33
2023-01-21T11:42:31.105Z,1.20
2023-01-21T11:45:05.289Z,1.15
2023-01-21T11:47:39.772Z,1.80
2023-01-21T11:50:28.115Z,1.50
2023-01-21T11:53:11.506Z,1.40
2023-01-21T11:55:46.847Z,0.80
2023-01-21T11:58:28.723Z,1.42
2023-01-21T12:03:29.574Z,1.38
2023-01-21T12:08:27.066Z,1.13
2023-01-21T12:10:57.901Z,1.85
2023-01-21T12:13:46.897Z,1.25
2023-01-21T12:16:14.416Z,1.35
2023-01-21T12:19:03.056Z,1.60
2023-01-21T12:21:33.323Z,1.20
2023-01-21T12:24:06.231Z,1.70
2023-01-21T12:26:49.342Z,1.58
2023-01-21T12:29:25.561Z,1.63
2023-01-21T12:32:11.036Z,1.80
2023-01-21T12:34:38.499Z,1.52
2023-01-21T12:37:18.114Z,1.10
2023-01-21T12:39:49.021Z,1.60
2023-01-21T12:42:27.435Z,1.75
2023-01-21T12:45:00.325Z,1.45
2023-01-21T12:47:34.951Z,1.67
2023-01-21T12:50:02.160Z,1.48
2023-01-21T12:53:17.518Z,1.30
2023-01-21T12:56:09.306Z,1.83
2023-01-21T12:58:42.964Z,1.17
2023-01-21T13:01:16.118Z,1.27
2023-01-21T13:04:04.027Z,1.35
2023-01-21T13:06:53.203Z,1.30
2023-01-21T13:09:37.720Z,1.48
2023-01-21T13:12:20.569Z,1.02
2023-01-21T13:15:17.190Z,0.90
2023-01-21T13:17:51.040Z,0.98
2023-01-21T13:20:21.258Z,1.23
2023-01-21T13:23:16.222Z,0.98
2023-01-21T13:25:50.862Z,1.27
2023-01-21T13:28:32.084Z,1.48
2023-01-21T13:30:59.767Z,1.58
2023-01-21T13:33:39.147Z,1.00
2023-01-21T13:36:36.452Z,1.38
2023-01-21T13:39:15.981Z,1.17
2023-01-21T13:42:02.022Z,2.00
2023-01-21T13:44:41.687Z,1.17
2023-01-21T13:47:18.470Z,1.40
2023-01-21T13:50:08.849Z,1.20
2023-01-21T13:53:04.400Z,0.98
2023-01-21T13:55:38.512Z,2.53
2023-01-21T13:58:13.311Z,1.35
2023-01-21T14:01:05.936Z,1.40
2023-01-21T14:03:45.124Z,1.70
2023-01-21T14:06:55.710Z,1.67
2023-01-21T14:09:28.816Z,1.63
2023-01-21T14:12:05.920Z,1.73
2023-01-21T14:14:52.382Z,1.90
2023-01-21T14:17:42.621Z,1.30
2023-01-21T14:20:16.137Z,1.40
2023-01-21T14:23:12.723Z,2.33
2023-01-21T14:25:55.394Z,2.15
2023-01-21T14:28:33.260Z,2.15
2023-01-21T14:31:13.876Z,1.35
2023-01-21T14:33:46.859Z,1.50
2023-01-21T14:36:35.490Z,2.35
2023-01-21T14:39:15.791Z,1.63
2023-01-21T14:42:05.140Z,2.33
2023-01-21T14:44:38.555Z,2.17
2023-01-21T14:47:16.209Z,2.50
2023-01-21T14:49:48.925Z,2.78
2023-01-21T14:52:27.166Z,2.90
2023-01-21T14:54:54.667Z,2.50
2023-01-21T14:57:38.685Z,2.08
2023-01-21T15:00:22.399Z,2.97
2023-01-21T15:03:06.200Z,2.25
2023-01-21T15:05:38.355Z,2.72
2023-01-21T15:08:21.621Z,3.42
2023-01-21T15:10:58.045Z,3.05
2023-01-21T15:13:39.141Z,3.47
2023-01-21T15:16:26.810Z,3.75
2023-01-21T15:19:13.042Z,3.92
2023-01-21T15:21:46.291Z,3.20
2023-01-21T15:24:30.523Z,3.20
2023-01-21T15:27:20.600Z,3.60
2023-01-21T15:29:54.636Z,2.78
2023-01-21T15:32:34.899Z,4.25
2023-01-21T15:35:24.416Z,3.25
2023-01-21T15:37:59.417Z,3.88
2023-01-21T15:40:36.167Z,4.03
2023-01-21T15:43:12.559Z,3.40
2023-01-21T15:46:01.673Z,3.85
2023-01-21T15:48:42.235Z,3.78
2023-01-21T15:51:16.288Z,5.60
2023-01-21T15:54:05.355Z,4.53
2023-01-21T15:57:01.333Z,3.88
2023-01-21T15:59:56.480Z,3.40
2023-01-21T16:02:36.045Z,2.90
2023-01-21T16:05:12.315Z,3.10
2023-01-21T16:08:07.925Z,2.63
2023-01-21T16:10:44.123Z,2.58
2023-01-21T16:13:40.480Z,3.58
2023-01-21T16:16:46.666Z,2.88
2023-01-21T16:19:21.733Z,2.47
2023-01-21T16:21:55.029Z,4.22
2023-01-21T16:24:27.179Z,3.35
2023-01-21T16:29:22.097Z,4.22
2023-01-21T16:31:52.211Z,2.60
2023-01-21T16:34:41.894Z,2.97
2023-01-21T16:37:18.499Z,2.63
2023-01-21T16:39:47.005Z,2.55
2023-01-21T16:42:29.246Z,1.90
2023-01-21T16:44:58.213Z,2.28
2023-01-21T16:47:30.379Z,2.50
2023-01-21T16:49:58.073Z,2.35
2023-01-21T16:52:26.638Z,2.25
2023-01-21T16:54:55.442Z,2.90
2023-01-21T16:57:31.819Z,2.70
2023-01-21T17:00:02.631Z,3.10
2023-01-21T17:02:34.419Z,2.15
2023-01-21T17:05:05.206Z,3.90
2023-01-21T17:07:36.631Z,3.08
2023-01-21T17:10:21.652Z,3.20
2023-01-21T17:12:54.033Z,4.15
2023-01-21T17:15:39.281Z,3.80
2023-01-21T17:18:17.870Z,3.67
2023-01-21T17:20:59.562Z,3.30
2023-01-21T17:23:55.652Z,3.88
2023-01-21T17:26:31.613Z,3.58
2023-01-21T17:29:16.744Z,2.90
2023-01-21T17:31:45.155Z,3.95
2023-01-21T17:34:15.547Z,3.35
2023-01-21T17:36:50.477Z,4.15
2023-01-21T17:39:49.300Z,3.15
2023-01-21T17:42:19.669Z,3.25
2023-01-21T17:44:50.461Z,3.85
2023-01-21T17:47:26.671Z,3.40
2023-01-21T17:50:24.021Z,3.90
2023-01-21T17:53:01.608Z,3.08
2023-01-21T17:55:33.289Z,3.88
2023-01-21T18:00:43.888Z,2.70
2023-01-21T18:03:12.354Z,2.45
2023-01-21T18:05:41.795Z,2.97
2023-01-21T18:08:15.111Z,2.92
2023-01-21T18:10:43.665Z,3.15
2023-01-21T18:13:16.173Z,2.70
2023-01-21T18:15:44.387Z,2.00
2023-01-21T18:18:25.706Z,2.47
2023-01-21T18:20:53.228Z,2.10
2023-01-21T18:23:21.018Z,2.10
2023-01-21T18:25:52.441Z,1.50
2023-01-21T18:28:25.860Z,1.92
2023-01-21T18:30:57.800Z,2.13
2023-01-21T18:33:25.965Z,2.05
2023-01-21T18:35:53.822Z,2.13
2023-01-21T18:38:27.641Z,2.30
2023-01-21T18:40:56.030Z,2.08
2023-01-21T18:43:24.986Z,2.13
2023-01-21T18:45:54.297Z,2.90
2023-01-21T18:48:28.294Z,2.70
2023-01-21T18:50:55.958Z,2.60
2023-01-21T18:53:23.525Z,2.47
2023-01-21T18:55:54.018Z,2.45
2023-01-21T18:58:21.914Z,1.90
2023-01-21T19:00:49.526Z,1.85
2023-01-21T19:03:17.527Z,2.25
2023-01-21T19:05:47.748Z,2.17
2023-01-21T19:08:22.764Z,2.30
2023-01-21T19:10:50.656Z,1.88
2023-01-21T19:13:18.174Z,2.00
2023-01-21T19:15:47.144Z,1.90
2023-01-21T19:18:16.552Z,3.03
2023-01-21T19:20:44.094Z,2.30
2023-01-21T19:23:17.366Z,1.80
2023-01-21T19:25:56.129Z,1.40
2023-01-21T19:28:25.390Z,2.13
2023-01-21T19:30:55.594Z,2.15
2023-01-21T19:33:23.932Z,2.78
2023-01-21T19:35:59.453Z,2.63
2023-01-21T19:38:27.472Z,2.63
2023-01-21T19:40:55.808Z,2.85
2023-01-21T19:43:23.581Z,2.10
2023-01-21T19:45:52.247Z,2.30
2023-01-21T19:48:21.778Z,1.63
2023-01-21T19:50:49.530Z,1.90
2023-01-21T19:53:21.207Z,2.58
2023-01-21T19:55:49.814Z,1.52
2023-01-21T19:58:20.078Z,2.33
2023-01-21T20:00:50.271Z,2.05
2023-01-21T20:03:19.224Z,2.35
2023-01-21T20:05:49.875Z,1.80
2023-01-21T20:08:26.430Z,2.00
2023-01-21T20:10:53.806Z,2.25
2023-01-21T20:13:21.704Z,1.27
2023-01-21T20:15:51.513Z,2.30
2023-01-21T20:18:25.583Z,2.15
2023-01-21T20:20:54.037Z,2.30
2023-01-21T20:23:23.189Z,2.53
2023-01-21T20:25:55.179Z,2.55
2023-01-21T20:28:22.733Z,2.00
2023-01-21T20:30:53.156Z,2.40
2023-01-21T20:33:23.211Z,1.92
2023-01-21T20:35:55.616Z,2.58
2023-01-21T20:38:30.229Z,2.63
2023-01-21T20:40:58.996Z,3.45
2023-01-21T20:43:27.814Z,3.53
2023-01-21T20:45:59.600Z,3.10
2023-01-21T20:48:35.022Z,3.70
2023-01-21T20:51:03.304Z,3.35
2023-01-21T20:53:30.937Z,3.85
2023-01-21T20:56:00.852Z,3.92
2023-01-21T20:58:28.756Z,3.15
2023-01-21T21:00:56.093Z,3.13
2023-01-21T21:03:23.886Z,3.80
2023-01-21T21:05:51.150Z,3.88
2023-01-21T21:08:21.617Z,2.72
2023-01-21T21:10:50.951Z,3.42
2023-01-21T21:13:18.599Z,3.33
2023-01-21T21:15:46.708Z,3.80
2023-01-21T21:18:14.885Z,3.30
2023-01-21T21:20:42.151Z,5.43
2023-01-21T21:23:16.021Z,5.15
2023-01-21T21:25:47.896Z,4.55
2023-01-21T21:28:17.664Z,5.13
2023-01-21T21:30:45.286Z,5.85
2023-01-21T21:33:19.627Z,6.18
2023-01-21T21:35:47.412Z,5.43
2023-01-21T21:38:17.948Z,4.22
2023-01-21T21:40:47.391Z,3.85
2023-01-21T21:43:35.904Z,4.00
2023-01-21T21:46:30.601Z,3.83
2023-01-21T21:48:58.161Z,4.07
2023-01-21T21:51:25.626Z,3.38
2023-01-21T21:53:53.192Z,2.78
2023-01-21T21:56:22.738Z,3.28
2023-01-21T21:58:51.369Z,2.88
2023-01-21T22:01:20.642Z,2.83
2023-01-21T22:03:49.031Z,3.25
2023-01-21T22:06:18.772Z,3.05
2023-01-21T22:08:46.936Z,2.92
2023-01-21T22:11:19.595Z,3.00
2023-01-21T22:13:50.226Z,2.70
2023-01-21T22:16:24.105Z,2.85
2023-01-21T22:18:52.629Z,2.65
2023-01-21T22:21:25.779Z,2.63
2023-01-21T22:23:54.678Z,2.38
2023-01-21T22:26:24.017Z,2.38
2023-01-21T22:28:51.948Z,2.60
2023-01-21T22:31:22.268Z,3.28
2023-01-21T22:33:50.212Z,2.72
2023-01-21T22:36:19.969Z,2.33
2023-01-21T22:38:48.024Z,2.47
2023-01-21T22:41:17.702Z,2.70
2023-01-21T22:43:48.160Z,2.25
2023-01-21T22:46:24.300Z,2.80
2023-01-21T22:48:54.047Z,2.70
2023-01-21T22:51:23.117Z,3.05
2023-01-21T22:53:51.577Z,3.05
2023-01-21T22:56:25.377Z,2.33
2023-01-21T22:58:59.438Z,3.15
2023-01-21T23:01:31.345Z,2.78
2023-01-21T23:03:59.863Z,2.15
2023-01-21T23:06:27.402Z,2.28
2023-01-21T23:08:55.728Z,2.70
2023-01-21T23:11:23.229Z,2.45
2023-01-21T23:13:53.278Z,2.78
2023-01-21T23:16:21.233Z,2.25
2023-01-21T23:18:49.402Z,2.80
2023-01-21T23:21:21.383Z,3.35
2023-01-21T23:23:49.376Z,3.00
2023-01-21T23:26:19.291Z,3.85
2023-01-21T23:28:47.456Z,3.08
2023-01-21T23:31:17.430Z,4.00
2023-01-21T23:33:49.444Z,3.95
2023-01-21T23:36:17.029Z,3.05
2023-01-21T23:38:44.998Z,2.78
2023-01-21T23:41:14.472Z,3.42
2023-01-21T23:43:41.983Z,3.60
2023-01-21T23:46:12.957Z,3.40
2023-01-21T23:48:40.531Z,3.88
2023-01-21T23:51:11.895Z,3.42
2023-01-21T23:53:39.582Z,2.83
2023-01-21T23:56:10.904Z,3.15
2023-01-21T23:58:38.475Z,3.28
